Station: Mount Moornapa  

  Atmospheric Gas Attenuation - ITU Rec 676-11   ----------------- dB/100km -----------------
Date Time Temp RH % AH g/m3 Dew Point Wind Direction Speed kph Gust kph Barometer mB Rainfall Since 9am 24GHz 47GHz 76GHz 122GHz 134GHz 241GHz
08/05 12:40 12.1 78 8.37 8.5 15 28 1013.1 0 19.2 26.0 39.7 104.2 97.5 335.0
08/05 12:30 12.1 78 8.37 8.4 15 28 1013.1 0 19.2 26.0 39.7 104.2 97.5 335.0
08/05 12:20 12.3 76 8.25 8.2 11 15 1013.1 0 18.9 25.8 39.1 102.6 95.6 328.6
08/05 12:10 12.5 74 8.14 8 30 46 1013.1 0 18.7 25.5 38.6 101.2 93.9 322.6
08/05 12:00 12.1 76 8.15 8 15 39 1013.1 0 18.7 25.6 38.8 101.8 94.5 324.8
08/05 11:50 12.3 76 8.25 8.2 19 28 1013.1 0 18.9 25.8 39.1 102.6 95.6 328.6
08/05 11:40 12 77 8.21 8.1 15 20 1013.1 0 18.8 25.8 39.1 102.6 95.5 328.0
08/05 11:30 11.8 77 8.11 7.9 26 52 1013.1 0 18.6 25.7 38.8 101.8 94.4 324.1
08/05 11:20 11.5 77 7.95 7.6 24 35 1013.1 0 18.3 25.5 38.3 100.4 92.6 317.9
08/05 11:10 11.3 79 8.06 7.8 28 41 1013.1 0 18.6 25.7 38.8 101.9 94.3 323.9
08/05 11:00 11.7 79 8.26 8.2 20 54 1013.1 0 19.0 25.9 39.5 103.5 96.5 331.6
08/05 10:50 12 77 8.21 8.1 19 35 1013.1 0 18.8 25.8 39.1 102.6 95.5 328.0
08/05 10:40 12 78 8.31 8.4 7 13 1013.1 0 19.1 25.9 39.5 103.7 96.8 332.7
08/05 10:30 12.2 81 8.74 9 13 33 1013.1 0 20.0 26.6 41.2 108.1 102.3 352.1
08/05 10:20 11.4 79 8.11 8 17 32 1013.1 0 18.7 25.8 39.0 102.3 94.9 325.8
08/05 10:10 11.6 79 8.21 8.2 13 20 1013.1 0 18.9 25.9 39.3 103.1 96.0 329.6
08/05 10:00 11.6 81 8.42 8.5 15 33 1013.1 0 19.3 26.2 40.2 105.4 98.8 339.6
08/05 09:50 11.8 78 8.21 8.2 24 33 1013.1 0 18.9 25.8 39.2 102.9 95.7 328.8
08/05 09:40 11.3 79 8.06 7.9 17 28 1013.1 0 18.6 25.7 38.8 101.9 94.3 323.9
08/05 09:30 10.7 85 8.35 8.3 13 33 1013.1 0 19.2 26.4 40.3 105.9 99.0 340.1
08/05 09:20 11 84 8.41 8.4 13 22 1013.1 0 19.3 26.4 40.4 106.1 99.4 341.7
08/05 09:10 10.9 83 8.26 8.1 19 26 1013.1 0 19.0 26.2 39.9 104.6 97.5 335.0
08/05 09:00 10.7 84 8.25 8.1 17 39 1013.1 0 19.0 26.2 39.9 104.8 97.6 335.4
08/05 08:50 10.6 83 8.1 7.8 13 20 1013.1 1 18.7 26.0 39.4 103.2 95.7 328.7
08/05 08:40 10.4 83 8 7.6 15 26 1013.1 1 18.5 25.9 39.0 102.4 94.6 324.8
08/05 08:30 10.4 84 8.1 7.8 15 28 1013.1 1 18.7 26.1 39.5 103.5 96.0 329.5
08/05 08:20 10.2 87 8.28 8.1 15 20 1013.1 1 19.1 26.4 40.3 105.8 98.7 339.0
08/05 08:10 10.1 88 8.32 8.2 13 17 1013.1 1 19.2 26.5 40.5 106.4 99.4 341.3
08/05 08:00 10 88 8.27 8.1 20 48 1013.1 1 19.1 26.5 40.4 105.9 98.8 339.4
08/05 07:50 9.7 93 8.58 8.6 13 17 1013.1 1 19.7 27.1 41.8 109.8 103.5 355.7
08/05 07:40 9.6 93 8.52 8.6 17 28 1013.1 1 19.6 27.0 41.6 109.3 102.8 353.3
08/05 07:30 9.7 95 8.76 8.9 17 41 1013.1 1 20.1 27.4 42.6 111.9 106.0 364.6
08/05 07:20 10.2 89 8.47 8.4 15 24 1013.1 0.8 19.5 26.7 41.1 107.9 101.3 348.1
08/05 07:10 10.4 86 8.29 8.1 13 28 1013.1 0.8 19.1 26.4 40.2 105.6 98.6 338.6
08/05 07:00 10.5 85 8.25 8.1 15 32 1013.1 0.8 19.0 26.3 40.0 105.0 97.9 336.2
08/05 06:50 10.6 83 8.1 7.8 22 50 1013.1 0.8 18.7 26.0 39.4 103.2 95.7 328.7
08/05 06:40 10.7 80 7.86 7.4 20 32 1013.1 0.8 18.1 25.6 38.3 100.5 92.4 316.9
08/05 06:30 10.9 78 7.76 7.2 19 41 1013.1 0.8 17.9 25.4 37.8 99.2 90.8 311.4
08/05 06:20 10.9 77 7.66 7 13 15 1013.1 0.8 17.7 25.2 37.4 98.1 89.5 306.8
08/05 06:10 11 75 7.51 6.7 22 30 1013.1 0.8 17.4 24.9 36.8 96.3 87.4 299.5
08/05 06:00 10.9 74 7.36 6.5 17 37 1013.1 0.8 17.1 24.7 36.2 94.9 85.5 292.9
08/05 05:50 10.9 73 7.26 6.2 13 20 1013.1 0.8 16.9 24.6 35.8 93.8 84.2 288.3
08/05 05:40 11.1 72 7.25 6.2 20 33 1013.1 0.8 16.8 24.5 35.7 93.5 83.8 287.2
08/05 05:30 11.1 71 7.15 6 20 43 1013.1 0.8 16.6 24.3 35.3 92.4 82.5 282.6
08/05 05:20 10.8 72 7.12 5.9 17 22 1013.1 0.8 16.6 24.4 35.3 92.4 82.5 282.3
08/05 05:10 10.8 73 7.22 6.1 20 24 1013.1 0.8 16.8 24.5 35.7 93.5 83.8 286.9
08/05 05:00 10.8 72 7.12 6 20 43 1013.1 0.8 16.6 24.4 35.3 92.4 82.5 282.3
08/05 04:50 10.8 72 7.12 5.9 17 20 1013.1 0.8 16.6 24.4 35.3 92.4 82.5 282.3
08/05 04:40 10.6 73 7.13 5.9 15 19 1013.1 0.8 16.6 24.4 35.4 92.8 82.8 283.5
08/05 04:30 10.7 73 7.17 6.1 17 35 1013.1 0.8 16.7 24.5 35.6 93.1 83.2 284.9
08/05 04:20 10.7 73 7.17 6 22 30 1013.1 0.8 16.7 24.5 35.6 93.1 83.2 284.9
08/05 04:10 10.8 72 7.12 5.9 24 33 1013.1 0.8 16.6 24.4 35.3 92.4 82.5 282.3
08/05 04:00 10.8 72 7.12 6 17 28 1013.1 0.8 16.6 24.4 35.3 92.4 82.5 282.3
08/05 03:50 10.8 72 7.12 5.9 17 26 1013.1 0.8 16.6 24.4 35.3 92.4 82.5 282.3
08/05 03:40 10.8 72 7.12 5.9 24 32 1013.1 0.8 16.6 24.4 35.3 92.4 82.5 282.3
08/05 03:30 10.8 72 7.12 6 19 39 1013.1 0.8 16.6 24.4 35.3 92.4 82.5 282.3
08/05 03:20 10.7 72 7.07 5.8 17 24 1013.1 0.8 16.5 24.3 35.2 92.0 81.9 280.4
08/05 03:10 10.5 71 6.89 5.6 11 17 1013.1 0.8 16.1 24.1 34.5 90.4 79.8 272.9
08/05 03:00 10.3 73 6.99 5.7 13 22 1013.1 0.8 16.3 24.3 35.0 91.7 81.3 278.1
08/05 02:50 10.3 71 6.8 5.4 11 13 1013.1 0.8 15.9 24.0 34.3 89.7 78.8 269.5
08/05 02:40 10.3 71 6.8 5.4 15 24 1013.1 0.8 15.9 24.0 34.3 89.7 78.8 269.5
08/05 02:30 10.2 72 6.85 5.4 13 26 1013.1 0.8 16.0 24.1 34.5 90.3 79.6 272.1
08/05 02:20 10.1 71 6.72 5.2 17 20 1013.1 0.8 15.7 23.9 34.0 89.0 78.0 266.5
08/05 02:10 10.1 71 6.72 5.2 17 22 1013.1 0.8 15.7 23.9 34.0 89.0 78.0 266.5
08/05 02:00 10.1 71 6.72 5.1 13 28 1013.1 0.8 15.7 23.9 34.0 89.0 78.0 266.5
08/05 01:50 10 71 6.67 5 17 19 1013.1 0.8 15.6 23.9 33.9 88.6 77.5 264.6
08/05 01:40 9.9 72 6.72 5.1 19 30 1013.1 0.8 15.7 24.0 34.1 89.3 78.2 267.2
08/05 01:30 9.8 71 6.59 4.8 15 39 1013.1 0.8 15.5 23.8 33.7 88.0 76.6 261.7
08/05 01:20 9.8 71 6.59 4.8 20 30 1013.1 0.8 15.5 23.8 33.7 88.0 76.6 261.7
08/05 01:10 9.7 71 6.55 4.7 15 26 1013.1 0.8 15.4 23.7 33.5 87.7 76.2 260.2
08/05 01:00 9.6 71 6.51 4.6 19 33 1013.1 0.8 15.3 23.7 33.4 87.4 75.8 258.7
08/05 00:50 9.6 71 6.51 4.6 19 24 1013.1 0.8 15.3 23.7 33.4 87.4 75.8 258.7
08/05 00:40 9.1 72 6.39 4.3 19 26 1013.1 0.8 15.1 23.7 33.2 86.7 74.7 254.9
08/05 00:30 8.8 73 6.36 4.2 17 32 1013.1 0.8 15.0 23.7 33.2 86.7 74.6 254.5
08/05 00:20 8.7 73 6.32 4.1 19 22 1013.1 0.8 14.9 23.6 33.1 86.4 74.2 253.0
08/05 00:10 8.5 73 6.24 3.9 19 22 1013.1 0.8 14.8 23.6 32.8 85.8 73.3 250.0
08/05 00:00 8.6 73 6.28 4 15 26 1013.1 0.8 14.8 23.6 32.9 86.1 73.8 251.5
07/05 23:50 8.4 74 6.28 4 17 22 1013.1 0.8 14.9 23.7 33.0 86.3 74.0 252.1
07/05 23:40 8.4 73 6.2 3.8 13 19 1013.1 0.8 14.7 23.5 32.7 85.5 72.9 248.5
07/05 23:30 8.2 74 6.2 3.9 15 30 1013.1 0.8 14.7 23.6 32.8 85.7 73.1 249.1
07/05 23:20 8.1 75 6.24 3.9 17 20 1013.1 0.8 14.8 23.7 33.0 86.2 73.7 251.3
07/05 23:10 8 74 6.12 3.6 17 22 1013.1 0.8 14.5 23.5 32.6 85.1 72.3 246.1
07/05 23:00 7.7 74 6 3.4 17 30 1013.1 0.8 14.3 23.4 32.2 84.1 71.0 241.6
07/05 22:50 7.7 75 6.08 3.5 20 33 1013.1 0.8 14.5 23.5 32.5 85.0 72.0 245.2
07/05 22:40 7.5 75 6.01 3.3 15 17 1013.1 0.8 14.3 23.5 32.3 84.4 71.3 242.6
07/05 22:30 7.2 77 6.05 3.4 13 22 1013.1 0.8 14.4 23.6 32.6 85.2 72.1 245.4
07/05 22:20 6.9 78 6.01 3.3 11 17 1013.1 0.8 14.3 23.6 32.6 85.1 71.8 244.5
07/05 22:10 6.6 78 5.89 3 11 19 1013.1 0.8 14.1 23.5 32.2 84.1 70.5 239.9
07/05 22:00 6.6 79 5.97 3.2 11 17 1013.1 0.8 14.3 23.6 32.5 85.0 71.6 243.6
07/05 21:50 6.5 80 6 3.3 9 11 1013.1 0.8 14.3 23.7 32.7 85.4 72.1 245.3
07/05 21:40 6.4 80 5.96 3.2 11 13 1013.1 0.8 14.2 23.7 32.6 85.1 71.6 243.7
07/05 21:30 6.4 79 5.89 3 13 26 1013.1 0.8 14.1 23.6 32.3 84.3 70.7 240.5
07/05 21:20 6.4 80 5.96 3.2 13 17 1013.1 0.8 14.2 23.7 32.6 85.1 71.6 243.7
07/05 21:10 6.3 80 5.93 3.1 19 24 1013.1 0.8 14.2 23.7 32.5 84.9 71.3 242.6
07/05 21:00 6.3 80 5.93 3.1 11 17 1013.1 0.8 14.2 23.7 32.5 84.9 71.3 242.6
07/05 20:50 6.1 82 5.99 3.2 7 9 1013.1 0.8 14.3 23.8 32.8 85.7 72.3 246.0
07/05 20:40 6.1 83 6.07 3.4 9 11 1013.1 0.8 14.5 23.9 33.1 86.6 73.4 249.8
07/05 20:30 6.1 83 6.07 3.4 9 19 1013.1 0.8 14.5 23.9 33.1 86.6 73.4 249.8
07/05 20:20 6.1 83 6.07 3.4 9 9 1013.1 0.8 14.5 23.9 33.1 86.6 73.4 249.8
07/05 20:10 6.1 82 5.99 3.2 11 13 1013.1 0.8 14.3 23.8 32.8 85.7 72.3 246.0

Last Refresh: 08-May-2026 12:09:37

Bureau of Meteorology